createdAt,value
2019-03-17T00:01:03.321Z,6.50
2019-03-17T00:03:34.872Z,6.93
2019-03-17T00:06:07.766Z,5.97
2019-03-17T00:08:37.745Z,6.67
2019-03-17T00:11:08.073Z,6.37
2019-03-17T00:13:38.677Z,6.90
2019-03-17T00:16:09.151Z,7.50
2019-03-17T00:18:39.842Z,7.53
2019-03-17T00:21:10.389Z,7.17
2019-03-17T00:23:42.019Z,7.10
2019-03-17T00:26:12.476Z,7.10
2019-03-17T00:28:44.388Z,6.00
2019-03-17T00:31:23.625Z,8.10
2019-03-17T00:33:47.423Z,7.73
2019-03-17T00:36:18.544Z,8.57
2019-03-17T00:38:48.888Z,7.07
2019-03-17T00:41:20.434Z,8.40
2019-03-17T00:43:50.996Z,8.07
2019-03-17T00:46:21.493Z,8.07
2019-03-17T00:48:51.988Z,7.87
2019-03-17T00:51:22.359Z,8.57
2019-03-17T00:53:54.546Z,8.20
2019-03-17T00:56:25.204Z,8.27
2019-03-17T00:58:56.099Z,8.17
2019-03-17T01:01:26.601Z,7.83
2019-03-17T01:03:58.425Z,9.00
2019-03-17T01:06:29.073Z,7.87
2019-03-17T01:08:59.457Z,8.57
2019-03-17T01:11:30.157Z,8.70
2019-03-17T01:14:00.835Z,8.30
2019-03-17T01:16:31.724Z,9.50
2019-03-17T01:19:02.421Z,8.17
2019-03-17T01:21:33.403Z,8.33
2019-03-17T01:24:04.775Z,7.33
2019-03-17T01:26:35.321Z,7.57
2019-03-17T01:29:05.720Z,6.97
2019-03-17T01:31:36.551Z,7.43
2019-03-17T01:34:06.890Z,7.07
2019-03-17T01:36:37.887Z,6.87
2019-03-17T01:39:08.344Z,6.77
2019-03-17T01:41:39.909Z,7.17
2019-03-17T01:44:10.462Z,6.40
2019-03-17T01:46:41.218Z,6.87
2019-03-17T01:49:11.772Z,5.80
2019-03-17T01:51:42.688Z,5.83
2019-03-17T01:54:13.535Z,5.70
2019-03-17T01:56:44.217Z,5.73
2019-03-17T01:59:14.815Z,5.90
2019-03-17T02:01:45.190Z,5.40
2019-03-17T02:04:15.511Z,5.27
2019-03-17T02:06:45.836Z,5.20
2019-03-17T02:09:16.370Z,5.37
2019-03-17T02:11:46.714Z,5.07
2019-03-17T02:14:17.067Z,5.17
2019-03-17T02:16:47.743Z,4.83
2019-03-17T02:19:18.173Z,4.90
2019-03-17T02:21:48.654Z,4.40
2019-03-17T02:24:19.090Z,4.90
2019-03-17T02:26:51.223Z,4.50
2019-03-17T02:29:21.591Z,4.77
2019-03-17T02:31:52.058Z,4.17
2019-03-17T02:34:22.520Z,3.63
2019-03-17T02:36:54.050Z,4.00
2019-03-17T02:39:26.221Z,4.50
2019-03-17T02:41:56.716Z,3.80
2019-03-17T02:44:27.233Z,3.97
2019-03-17T02:46:57.666Z,3.63
2019-03-17T02:49:28.057Z,3.87
2019-03-17T02:51:58.891Z,4.17
2019-03-17T02:54:29.459Z,3.50
2019-03-17T02:56:59.989Z,3.87
2019-03-17T02:59:30.603Z,3.70
2019-03-17T03:02:01.022Z,3.40
2019-03-17T03:04:31.534Z,3.60
2019-03-17T03:07:02.069Z,3.53
2019-03-17T03:09:35.280Z,3.50
2019-03-17T03:12:05.765Z,3.97
2019-03-17T03:14:36.404Z,3.87
2019-03-17T03:17:06.752Z,3.20
2019-03-17T03:19:37.364Z,3.40
2019-03-17T03:22:07.853Z,3.23
2019-03-17T03:24:38.310Z,3.43
2019-03-17T03:27:08.935Z,3.70
2019-03-17T03:29:39.504Z,3.47
2019-03-17T03:32:10.148Z,3.80
2019-03-17T03:34:40.789Z,3.20
2019-03-17T03:37:11.646Z,3.40
2019-03-17T03:39:42.426Z,3.43
2019-03-17T03:42:13.221Z,3.40
2019-03-17T03:44:43.757Z,3.40
2019-03-17T03:47:14.268Z,3.40
2019-03-17T03:49:44.726Z,3.53
2019-03-17T03:52:16.226Z,3.43
2019-03-17T03:54:46.557Z,3.10
2019-03-17T03:57:17.181Z,3.40
2019-03-17T03:59:47.875Z,4.10
2019-03-17T04:02:18.978Z,3.00
2019-03-17T04:04:49.377Z,4.00
2019-03-17T04:07:21.607Z,3.50
2019-03-17T04:09:51.995Z,3.63
2019-03-17T04:12:22.504Z,3.60
2019-03-17T04:14:54.263Z,3.80
2019-03-17T04:17:24.708Z,3.17
2019-03-17T04:19:55.106Z,3.43
2019-03-17T04:22:25.509Z,4.00
2019-03-17T04:24:59.651Z,3.60
2019-03-17T04:27:30.317Z,2.90
2019-03-17T04:30:01.217Z,3.37
2019-03-17T04:32:31.950Z,3.27
2019-03-17T04:35:02.654Z,3.50
2019-03-17T04:37:34.044Z,3.00
2019-03-17T04:40:06.027Z,3.30
2019-03-17T04:42:36.518Z,3.10
2019-03-17T04:45:07.946Z,3.50
2019-03-17T04:47:38.324Z,3.00
2019-03-17T04:50:09.578Z,2.97
2019-03-17T04:52:40.568Z,3.37
2019-03-17T04:55:10.979Z,3.73
2019-03-17T04:57:42.370Z,3.07
2019-03-17T05:00:13.178Z,3.40
2019-03-17T05:02:43.731Z,3.03
2019-03-17T05:05:14.361Z,3.27
2019-03-17T05:07:44.821Z,3.60
2019-03-17T05:10:15.420Z,3.80
2019-03-17T05:12:45.963Z,3.40
2019-03-17T05:15:16.521Z,3.60
2019-03-17T05:17:47.343Z,3.70
2019-03-17T05:20:17.963Z,3.37
2019-03-17T05:22:49.400Z,3.80
2019-03-17T05:25:20.107Z,3.40
2019-03-17T05:27:50.479Z,4.00
2019-03-17T05:30:20.976Z,4.17
2019-03-17T05:32:51.404Z,4.10
2019-03-17T05:35:23.351Z,4.17
2019-03-17T05:37:53.744Z,4.57
2019-03-17T05:40:24.092Z,4.27
2019-03-17T05:42:54.521Z,4.57
2019-03-17T05:45:25.149Z,3.87
2019-03-17T05:47:55.565Z,4.37
2019-03-17T05:50:26.171Z,4.03
2019-03-17T05:52:57.534Z,4.10
2019-03-17T05:55:29.386Z,3.93
2019-03-17T05:57:59.849Z,4.47
2019-03-17T06:00:30.450Z,4.00
2019-03-17T06:03:01.046Z,4.30
2019-03-17T06:05:31.509Z,4.33
2019-03-17T06:08:02.173Z,3.70
2019-03-17T06:10:33.068Z,3.90
2019-03-17T06:13:04.129Z,4.10
2019-03-17T06:15:34.624Z,3.57
2019-03-17T06:18:05.114Z,3.53
2019-03-17T06:20:35.575Z,3.23
2019-03-17T06:23:05.892Z,3.27
2019-03-17T06:25:37.695Z,3.63
2019-03-17T06:28:08.105Z,3.70
2019-03-17T06:30:38.465Z,3.43
2019-03-17T06:33:09.276Z,3.67
2019-03-17T06:35:41.321Z,3.63
2019-03-17T06:38:12.283Z,3.37
2019-03-17T06:40:42.656Z,3.40
2019-03-17T06:43:13.353Z,3.80
2019-03-17T06:45:43.809Z,3.30
2019-03-17T06:48:14.328Z,3.53
2019-03-17T06:50:45.013Z,3.73
2019-03-17T06:53:15.667Z,3.30
2019-03-17T06:55:47.225Z,3.57
2019-03-17T06:58:19.416Z,3.63
2019-03-17T07:00:50.313Z,3.70
2019-03-17T07:03:20.685Z,3.77
2019-03-17T07:05:51.224Z,3.30
2019-03-17T07:08:21.978Z,3.23
2019-03-17T07:10:52.508Z,3.07
2019-03-17T07:13:23.043Z,3.00
2019-03-17T07:15:53.513Z,2.80
2019-03-17T07:18:24.191Z,2.93
2019-03-17T07:20:54.684Z,3.00
2019-03-17T07:23:25.077Z,2.87
2019-03-17T07:25:55.510Z,2.50
2019-03-17T07:28:26.146Z,3.10
2019-03-17T07:30:57.005Z,3.20
2019-03-17T07:33:27.510Z,2.27
2019-03-17T07:35:58.207Z,3.17
2019-03-17T07:38:29.997Z,3.00
2019-03-17T07:41:00.815Z,2.90
2019-03-17T07:43:31.896Z,3.50
2019-03-17T07:46:02.605Z,2.53
2019-03-17T07:48:33.574Z,3.27
2019-03-17T07:51:04.244Z,3.70
2019-03-17T07:53:34.910Z,3.07
2019-03-17T07:56:05.641Z,3.27
2019-03-17T07:58:36.124Z,3.37
2019-03-17T08:01:06.498Z,3.33
2019-03-17T08:03:37.303Z,3.10
2019-03-17T08:06:07.928Z,2.93
2019-03-17T08:08:41.191Z,3.47
2019-03-17T08:11:12.011Z,3.27
2019-03-17T08:13:43.723Z,2.73
2019-03-17T08:16:16.336Z,3.17
2019-03-17T08:18:47.333Z,3.27
2019-03-17T08:21:17.861Z,2.50
2019-03-17T08:23:48.874Z,2.60
2019-03-17T08:26:19.307Z,2.93
2019-03-17T08:28:49.980Z,2.97
2019-03-17T08:31:21.241Z,2.77
2019-03-17T08:33:52.149Z,3.00
2019-03-17T08:36:22.643Z,2.57
2019-03-17T08:38:53.123Z,2.30
2019-03-17T08:41:23.559Z,2.90
2019-03-17T08:43:54.744Z,2.80
2019-03-17T08:46:25.836Z,2.90
2019-03-17T08:48:56.375Z,2.77
2019-03-17T08:51:27.030Z,3.17
2019-03-17T08:53:57.603Z,2.60
2019-03-17T08:56:28.375Z,3.10
2019-03-17T08:58:59.309Z,2.90
2019-03-17T09:01:30.419Z,2.70
2019-03-17T09:04:01.353Z,2.57
2019-03-17T09:06:32.441Z,2.50
2019-03-17T09:09:04.633Z,2.80
2019-03-17T09:11:35.432Z,2.50
2019-03-17T09:14:07.647Z,2.70
2019-03-17T09:16:38.701Z,2.73
2019-03-17T09:19:09.917Z,2.70
2019-03-17T09:21:40.299Z,2.63
2019-03-17T09:24:17.028Z,2.70
2019-03-17T09:26:43.505Z,2.77
2019-03-17T09:29:14.452Z,2.70
2019-03-17T09:31:45.357Z,2.87
2019-03-17T09:34:15.867Z,2.63
2019-03-17T09:36:46.448Z,3.10
2019-03-17T09:39:17.086Z,2.70
2019-03-17T09:41:47.568Z,2.87
2019-03-17T09:44:18.320Z,2.37
2019-03-17T09:46:48.751Z,2.40
2019-03-17T09:49:19.189Z,2.47
2019-03-17T09:51:49.779Z,1.60
2019-03-17T09:54:21.608Z,1.73
2019-03-17T09:56:53.610Z,1.67
2019-03-17T09:59:25.148Z,1.80
2019-03-17T10:01:56.953Z,1.57
2019-03-17T10:04:27.359Z,1.50
2019-03-17T10:06:58.044Z,1.93
2019-03-17T10:09:30.103Z,1.67
2019-03-17T10:12:01.328Z,1.70
2019-03-17T10:14:32.450Z,1.53
2019-03-17T10:17:03.167Z,1.67
2019-03-17T10:19:33.963Z,1.57
2019-03-17T10:22:04.892Z,1.60
2019-03-17T10:24:36.380Z,1.57
2019-03-17T10:27:06.992Z,1.60
2019-03-17T10:29:56.110Z,1.40
2019-03-17T10:32:27.076Z,1.60
2019-03-17T10:34:58.376Z,1.70
2019-03-17T10:37:29.140Z,1.60
2019-03-17T10:39:59.985Z,1.30
2019-03-17T10:42:34.081Z,1.40
2019-03-17T10:45:04.599Z,1.50
2019-03-17T10:47:37.100Z,1.50
2019-03-17T10:50:13.654Z,1.10
2019-03-17T10:52:44.394Z,1.57
2019-03-17T10:55:14.972Z,1.30
2019-03-17T10:57:45.764Z,1.43
2019-03-17T11:00:22.133Z,1.30
2019-03-17T11:02:52.618Z,1.10
2019-03-17T11:05:23.165Z,1.33
2019-03-17T11:07:54.158Z,1.43
2019-03-17T11:10:24.585Z,1.60
2019-03-17T11:12:55.420Z,1.60
2019-03-17T11:15:25.992Z,1.43
2019-03-17T11:17:56.651Z,1.43
2019-03-17T11:20:27.172Z,1.30
2019-03-17T11:22:58.028Z,1.03
2019-03-17T11:25:28.724Z,1.67
2019-03-17T11:27:59.528Z,1.20
2019-03-17T11:30:30.020Z,1.47
2019-03-17T11:33:00.448Z,1.40
2019-03-17T11:35:31.160Z,1.20
2019-03-17T11:38:01.593Z,1.60
2019-03-17T11:40:32.232Z,1.50
2019-03-17T11:43:02.760Z,1.67
2019-03-17T11:45:33.254Z,1.33
2019-03-17T11:48:03.718Z,1.40
2019-03-17T11:50:34.311Z,1.33
2019-03-17T11:53:05.241Z,1.40
2019-03-17T11:55:35.909Z,1.30
2019-03-17T11:58:06.996Z,1.60
2019-03-17T12:00:37.685Z,1.30
2019-03-17T12:03:08.242Z,1.60
2019-03-17T12:05:38.796Z,1.70
2019-03-17T12:08:09.204Z,1.30
2019-03-17T12:10:40.126Z,1.20
2019-03-17T12:13:10.634Z,1.17
2019-03-17T12:15:40.995Z,1.33
2019-03-17T12:18:12.838Z,1.10
2019-03-17T12:20:43.457Z,1.20
2019-03-17T12:23:14.050Z,1.30
2019-03-17T12:25:44.749Z,1.43
2019-03-17T12:28:15.436Z,1.30
2019-03-17T12:30:46.337Z,1.27
2019-03-17T12:33:16.866Z,1.20
2019-03-17T12:35:47.346Z,1.43
2019-03-17T12:38:18.107Z,1.60
2019-03-17T12:40:48.888Z,1.50
2019-03-17T12:43:19.393Z,1.47
2019-03-17T12:45:50.178Z,1.40
2019-03-17T12:48:20.714Z,1.43
2019-03-17T12:50:51.435Z,1.63
2019-03-17T12:53:22.616Z,1.37
2019-03-17T12:55:53.154Z,1.10
2019-03-17T12:58:23.924Z,0.90
2019-03-17T13:00:54.697Z,1.23
2019-03-17T13:03:25.202Z,1.30
2019-03-17T13:05:55.863Z,1.20
2019-03-17T13:08:27.800Z,1.33
2019-03-17T13:10:59.089Z,1.30
2019-03-17T13:13:29.920Z,1.10
2019-03-17T13:16:00.312Z,1.27
2019-03-17T13:18:31.005Z,1.35
2019-03-17T13:21:01.701Z,1.20
2019-03-17T13:23:32.386Z,1.30
2019-03-17T13:26:02.976Z,0.93
2019-03-17T13:28:33.610Z,1.50
2019-03-17T13:31:04.912Z,1.40
2019-03-17T13:33:36.551Z,0.95
2019-03-17T13:36:07.076Z,0.98
2019-03-17T13:38:38.006Z,1.10
2019-03-17T13:41:08.686Z,1.27
2019-03-17T13:43:39.217Z,1.70
2019-03-17T13:46:09.883Z,1.10
2019-03-17T13:48:40.349Z,1.05
2019-03-17T13:51:10.761Z,1.35
2019-03-17T13:53:41.551Z,1.30
2019-03-17T13:56:13.607Z,1.55
2019-03-17T13:58:45.501Z,1.15
2019-03-17T14:01:16.089Z,1.30
2019-03-17T14:03:47.795Z,1.12
2019-03-17T14:06:18.482Z,1.50
2019-03-17T14:08:49.282Z,1.22
2019-03-17T14:11:19.653Z,1.30
2019-03-17T14:13:50.511Z,1.00
2019-03-17T14:16:21.020Z,1.50
2019-03-17T14:18:52.016Z,1.23
2019-03-17T14:21:24.521Z,1.70
2019-03-17T14:23:55.370Z,1.25
2019-03-17T14:26:26.976Z,1.27
2019-03-17T14:28:57.651Z,1.50
2019-03-17T14:31:28.074Z,1.40
2019-03-17T14:33:58.977Z,1.33
2019-03-17T14:36:31.528Z,1.43
2019-03-17T14:39:04.311Z,1.60
2019-03-17T14:41:35.966Z,1.70
2019-03-17T14:44:06.813Z,1.53
2019-03-17T14:46:37.484Z,1.87
2019-03-17T14:49:08.118Z,1.50
2019-03-17T14:51:40.190Z,1.90
2019-03-17T14:54:10.709Z,2.47
2019-03-17T14:56:41.053Z,2.20
2019-03-17T14:59:12.541Z,1.63
2019-03-17T15:01:43.328Z,1.80
2019-03-17T15:04:14.194Z,1.60
2019-03-17T15:06:44.701Z,1.90
2019-03-17T15:09:15.156Z,2.23
2019-03-17T15:11:45.662Z,2.30
2019-03-17T15:14:16.290Z,1.77
2019-03-17T15:16:48.327Z,1.73
2019-03-17T15:19:18.815Z,2.03
2019-03-17T15:21:49.216Z,1.93
2019-03-17T15:24:19.586Z,2.30
2019-03-17T15:26:50.256Z,1.80
2019-03-17T15:29:20.871Z,1.80
2019-03-17T15:31:51.649Z,2.07
2019-03-17T15:34:22.862Z,2.37
2019-03-17T15:36:53.763Z,1.67
2019-03-17T15:39:24.426Z,1.93
2019-03-17T15:41:55.031Z,1.97
2019-03-17T15:44:25.504Z,1.77
2019-03-17T15:46:56.225Z,2.17
2019-03-17T15:49:26.836Z,1.60
2019-03-17T15:51:57.677Z,2.27
2019-03-17T15:54:28.478Z,1.57
2019-03-17T15:57:00.477Z,2.03
2019-03-17T15:59:30.898Z,1.60
2019-03-17T16:02:01.628Z,1.87
2019-03-17T16:04:33.121Z,2.40
2019-03-17T16:07:03.614Z,3.50
2019-03-17T16:09:33.953Z,3.20
2019-03-17T16:12:04.761Z,2.27
2019-03-17T16:14:35.249Z,1.93
2019-03-17T16:17:06.146Z,2.73
2019-03-17T16:19:36.615Z,3.60
2019-03-17T16:22:07.416Z,3.80
2019-03-17T16:24:38.301Z,4.43
2019-03-17T16:27:10.499Z,4.83
2019-03-17T16:29:41.287Z,2.97
2019-03-17T16:32:12.242Z,3.30
2019-03-17T16:34:42.935Z,3.20
2019-03-17T16:37:13.652Z,3.07
2019-03-17T16:39:45.338Z,2.90
2019-03-17T16:42:16.196Z,4.80
2019-03-17T16:44:47.095Z,10.40
2019-03-17T16:47:17.512Z,7.70
2019-03-17T16:49:47.961Z,6.17
2019-03-17T16:52:18.829Z,4.90
2019-03-17T16:54:49.398Z,5.23
2019-03-17T16:57:19.884Z,4.27
2019-03-17T16:59:50.403Z,3.77
2019-03-17T17:02:21.277Z,3.37
2019-03-17T17:04:51.771Z,3.03
2019-03-17T17:07:22.403Z,4.17
2019-03-17T17:09:53.179Z,3.80
2019-03-17T17:12:23.738Z,2.57
2019-03-17T17:14:54.260Z,2.23
2019-03-17T17:17:25.486Z,1.47
2019-03-17T17:19:56.314Z,8.57
2019-03-17T17:22:29.069Z,1.63
2019-03-17T17:24:59.875Z,1.20
2019-03-17T17:27:30.618Z,0.63
2019-03-17T17:30:01.965Z,0.80
2019-03-17T17:32:32.992Z,1.60
2019-03-17T17:35:04.423Z,1.20
2019-03-17T17:37:35.216Z,0.83
2019-03-17T17:40:12.976Z,0.97
2019-03-17T17:42:44.206Z,1.00
2019-03-17T17:45:17.014Z,0.60
2019-03-17T17:47:47.777Z,1.07
2019-03-17T17:50:20.752Z,0.97
2019-03-17T17:52:51.639Z,0.67
2019-03-17T17:55:25.287Z,0.80
2019-03-17T17:57:55.961Z,0.60
2019-03-17T18:00:40.520Z,0.90
2019-03-17T18:03:11.712Z,0.53
2019-03-17T18:05:42.288Z,0.67
2019-03-17T18:08:13.027Z,0.93
2019-03-17T18:10:43.797Z,0.73
2019-03-17T18:13:14.842Z,0.90
2019-03-17T18:15:45.328Z,1.00
2019-03-17T18:18:17.201Z,1.10
2019-03-17T18:20:48.121Z,0.60
2019-03-17T18:23:18.731Z,1.03
2019-03-17T18:25:51.690Z,0.93
2019-03-17T18:28:22.395Z,1.13
2019-03-17T18:30:53.110Z,0.80
2019-03-17T18:33:23.783Z,0.80
2019-03-17T18:35:54.280Z,1.00
2019-03-17T18:38:25.806Z,1.33
2019-03-17T18:40:56.593Z,1.50
2019-03-17T18:43:27.075Z,1.03
2019-03-17T18:45:57.583Z,1.27
2019-03-17T18:48:29.337Z,1.00
2019-03-17T18:51:00.082Z,0.80
2019-03-17T18:53:31.341Z,1.13
2019-03-17T18:56:02.037Z,1.30
2019-03-17T18:58:36.687Z,2.00
2019-03-17T19:01:07.136Z,2.30
2019-03-17T19:03:37.959Z,2.37
2019-03-17T19:06:10.572Z,1.80
2019-03-17T19:08:40.922Z,2.10
2019-03-17T19:11:12.129Z,1.10
2019-03-17T19:13:42.825Z,0.77
2019-03-17T19:16:13.439Z,0.90
2019-03-17T19:18:43.861Z,1.30
2019-03-17T19:21:14.265Z,0.90
2019-03-17T19:23:44.883Z,0.80
2019-03-17T19:26:15.655Z,0.97
2019-03-17T19:28:46.344Z,0.90
2019-03-17T19:31:18.495Z,0.90
2019-03-17T19:33:51.768Z,1.07
2019-03-17T19:36:24.435Z,1.10
2019-03-17T19:38:55.200Z,1.50
2019-03-17T19:41:26.630Z,1.43
2019-03-17T19:43:57.405Z,1.60
2019-03-17T19:46:28.059Z,1.53
2019-03-17T19:48:58.693Z,1.77
2019-03-17T19:51:29.267Z,1.40
2019-03-17T19:54:00.323Z,1.57
2019-03-17T19:56:31.494Z,1.53
2019-03-17T19:59:02.046Z,1.97
2019-03-17T20:01:32.598Z,1.60
2019-03-17T20:04:03.072Z,1.40
2019-03-17T20:06:34.186Z,1.40
2019-03-17T20:09:07.491Z,1.47
2019-03-17T20:11:37.889Z,1.50
2019-03-17T20:14:08.557Z,1.43
2019-03-17T20:16:39.562Z,1.60
2019-03-17T20:19:10.067Z,1.47
2019-03-17T20:21:42.190Z,1.13
2019-03-17T20:24:15.534Z,1.30
2019-03-17T20:26:46.006Z,1.30
2019-03-17T20:29:18.219Z,1.10
2019-03-17T20:31:49.082Z,1.30
2019-03-17T20:34:19.953Z,1.40
2019-03-17T20:36:50.706Z,1.57
2019-03-17T20:39:21.332Z,1.50
2019-03-17T20:41:52.206Z,1.30
2019-03-17T20:44:22.632Z,1.33
2019-03-17T20:46:55.383Z,1.50
2019-03-17T20:49:26.700Z,1.50
2019-03-17T20:51:57.221Z,1.67
2019-03-17T20:54:28.061Z,1.47
2019-03-17T20:57:00.726Z,1.47
2019-03-17T20:59:31.252Z,1.80
2019-03-17T21:02:04.113Z,2.10
2019-03-17T21:04:36.307Z,1.40
2019-03-17T21:07:07.026Z,1.50
2019-03-17T21:09:37.856Z,1.70
2019-03-17T21:12:08.347Z,1.80
2019-03-17T21:14:39.051Z,1.83
2019-03-17T21:17:10.207Z,1.60
2019-03-17T21:19:41.223Z,1.47
2019-03-17T21:22:11.560Z,1.67
2019-03-17T21:24:42.583Z,1.70
2019-03-17T21:27:14.664Z,1.90
2019-03-17T21:29:45.169Z,1.80
2019-03-17T21:32:15.514Z,2.20
2019-03-17T21:34:46.019Z,1.90
2019-03-17T21:37:17.199Z,2.07
2019-03-17T21:39:49.190Z,2.67
2019-03-17T21:42:19.619Z,2.70
2019-03-17T21:44:50.217Z,2.30
2019-03-17T21:47:21.835Z,2.83
2019-03-17T21:49:52.830Z,2.47
2019-03-17T21:52:23.866Z,2.53
2019-03-17T21:54:54.365Z,2.27
2019-03-17T21:57:25.011Z,2.67
2019-03-17T21:59:56.541Z,2.70
2019-03-17T22:02:27.144Z,2.30
2019-03-17T22:04:58.046Z,2.73
2019-03-17T22:07:28.653Z,2.10
2019-03-17T22:09:59.707Z,2.40
2019-03-17T22:12:31.442Z,2.40
2019-03-17T22:15:02.078Z,2.23
2019-03-17T22:17:33.360Z,2.63
2019-03-17T22:20:04.840Z,2.40
2019-03-17T22:22:35.405Z,2.27
2019-03-17T22:25:08.507Z,2.57
2019-03-17T22:27:39.054Z,2.30
2019-03-17T22:30:17.806Z,2.53
2019-03-17T22:32:48.414Z,3.17
2019-03-17T22:35:19.246Z,2.60
2019-03-17T22:37:49.785Z,2.70
2019-03-17T22:40:21.444Z,2.50
2019-03-17T22:42:52.653Z,2.23
2019-03-17T22:45:23.179Z,2.60
2019-03-17T22:47:53.897Z,2.27
2019-03-17T22:50:24.540Z,2.60
2019-03-17T22:52:56.671Z,3.07
2019-03-17T22:55:27.213Z,2.70
2019-03-17T22:57:59.222Z,2.40
2019-03-17T23:00:34.492Z,3.10
2019-03-17T23:03:06.948Z,2.80
2019-03-17T23:05:37.406Z,2.50
2019-03-17T23:08:08.198Z,2.73
2019-03-17T23:10:38.660Z,2.50
2019-03-17T23:13:09.028Z,2.63
2019-03-17T23:15:39.733Z,2.77
2019-03-17T23:18:10.502Z,3.00
2019-03-17T23:20:41.329Z,2.93
2019-03-17T23:23:11.868Z,2.80
2019-03-17T23:25:42.218Z,2.97
2019-03-17T23:28:12.666Z,2.53
2019-03-17T23:30:43.625Z,2.37
2019-03-17T23:33:14.418Z,3.10
2019-03-17T23:35:45.893Z,2.80
2019-03-17T23:38:16.165Z,2.70
2019-03-17T23:40:46.662Z,2.80
2019-03-17T23:43:17.117Z,2.63
2019-03-17T23:45:47.641Z,2.40
2019-03-17T23:48:18.364Z,2.63
2019-03-17T23:50:49.353Z,2.13
2019-03-17T23:53:19.865Z,2.20
2019-03-17T23:55:51.948Z,2.37
2019-03-17T23:58:22.550Z,2.80
